createdAt,value
2023-04-16T00:00:09.981Z,40.97
2023-04-16T00:03:23.995Z,40.83
2023-04-16T00:06:18.022Z,40.86
2023-04-16T00:09:11.735Z,40.49
2023-04-16T00:12:06.257Z,40.83
2023-04-16T00:14:59.814Z,40.91
2023-04-16T00:17:53.420Z,40.85
2023-04-16T00:20:47.103Z,40.81
2023-04-16T00:23:40.836Z,40.52
2023-04-16T00:26:34.536Z,40.77
2023-04-16T00:29:28.786Z,40.87
2023-04-16T00:32:22.432Z,40.77
2023-04-16T00:35:16.372Z,40.52
2023-04-16T00:38:10.108Z,40.52
2023-04-16T00:41:03.654Z,40.37
2023-04-16T00:43:57.457Z,40.71
2023-04-16T00:46:51.922Z,40.45
2023-04-16T00:49:45.922Z,40.65
2023-04-16T00:52:40.952Z,40.52
2023-04-16T00:55:34.615Z,40.44
2023-04-16T00:58:29.501Z,40.47
2023-04-16T01:01:23.383Z,40.37
2023-04-16T01:04:17.219Z,40.49
2023-04-16T01:07:11.219Z,40.84
2023-04-16T01:10:05.486Z,40.89
2023-04-16T01:12:59.360Z,40.63
2023-04-16T01:15:53.142Z,40.53
2023-04-16T01:18:46.842Z,40.43
2023-04-16T01:21:40.623Z,40.74
2023-04-16T01:24:34.992Z,40.45
2023-04-16T01:27:28.977Z,40.46
2023-04-16T01:30:22.581Z,40.08
2023-04-16T01:33:18.020Z,39.46
2023-04-16T01:36:11.959Z,39.32
2023-04-16T01:39:05.649Z,39.93
2023-04-16T01:41:59.279Z,39.99
2023-04-16T01:44:52.830Z,40.02
2023-04-16T01:47:46.692Z,39.83
2023-04-16T01:50:40.365Z,39.72
2023-04-16T01:53:36.545Z,39.56
2023-04-16T01:56:30.764Z,38.90
2023-04-16T01:59:24.449Z,39.39
2023-04-16T02:02:19.372Z,39.38
2023-04-16T02:05:13.297Z,39.29
2023-04-16T02:08:07.365Z,39.47
2023-04-16T02:11:01.760Z,39.34
2023-04-16T02:13:55.377Z,39.37
2023-04-16T02:16:49.190Z,39.61
2023-04-16T02:19:42.904Z,40.09
2023-04-16T02:22:36.554Z,39.85
2023-04-16T02:25:30.294Z,39.79
2023-04-16T02:28:24.031Z,39.68
2023-04-16T02:31:19.589Z,39.46
2023-04-16T02:34:13.464Z,39.62
2023-04-16T02:37:07.174Z,39.98
2023-04-16T02:40:01.089Z,39.95
2023-04-16T02:42:55.169Z,39.98
2023-04-16T02:45:49.205Z,40.02
2023-04-16T02:48:43.225Z,39.88
2023-04-16T02:51:37.200Z,40.16
2023-04-16T02:54:30.808Z,39.81
2023-04-16T02:57:24.450Z,39.68
2023-04-16T03:00:18.870Z,39.93
2023-04-16T03:03:12.533Z,39.87
2023-04-16T03:06:06.527Z,39.57
2023-04-16T03:09:00.383Z,39.46
2023-04-16T03:11:54.146Z,40.06
2023-04-16T03:14:47.848Z,39.32
2023-04-16T03:17:41.501Z,39.29
2023-04-16T03:20:35.333Z,39.47
2023-04-16T03:23:29.236Z,39.39
2023-04-16T03:26:23.022Z,39.11
2023-04-16T03:29:16.686Z,39.53
2023-04-16T03:32:12.495Z,39.60
2023-04-16T03:35:06.974Z,39.59
2023-04-16T03:38:00.619Z,39.62
2023-04-16T03:40:54.776Z,39.54
2023-04-16T03:43:48.380Z,39.37
2023-04-16T03:46:41.986Z,39.40
2023-04-16T03:49:35.894Z,39.04
2023-04-16T03:52:29.921Z,39.86
2023-04-16T03:55:23.474Z,39.91
2023-04-16T03:58:17.075Z,39.93
2023-04-16T04:01:10.958Z,39.79
2023-04-16T04:04:05.387Z,40.32
2023-04-16T04:06:59.138Z,41.67
2023-04-16T04:09:52.730Z,41.05
2023-04-16T04:12:46.460Z,42.04
2023-04-16T04:15:40.011Z,41.68
2023-04-16T04:18:33.739Z,41.57
2023-04-16T04:21:28.323Z,42.35
2023-04-16T04:24:21.914Z,42.41
2023-04-16T04:27:15.591Z,42.49
2023-04-16T04:30:11.706Z,42.49
2023-04-16T04:33:05.563Z,42.48
2023-04-16T04:35:59.553Z,42.63
2023-04-16T04:38:53.511Z,42.81
2023-04-16T04:41:47.190Z,42.47
2023-04-16T04:44:40.883Z,42.65
2023-04-16T04:47:34.596Z,42.50
2023-04-16T04:50:28.765Z,41.89
2023-04-16T04:53:22.428Z,41.78
2023-04-16T04:56:16.431Z,41.78
2023-04-16T04:59:10.187Z,42.04
2023-04-16T05:02:04.882Z,42.63
2023-04-16T05:04:59.036Z,42.31
2023-04-16T05:07:52.745Z,42.35
2023-04-16T05:10:46.355Z,42.77
2023-04-16T05:13:39.963Z,42.56
2023-04-16T05:16:33.925Z,42.43
2023-04-16T05:19:27.752Z,42.21
2023-04-16T05:22:21.442Z,42.12
2023-04-16T05:25:19.547Z,42.47
2023-04-16T05:28:13.282Z,42.51
2023-04-16T05:31:07.227Z,42.90
2023-04-16T05:34:01.239Z,42.31
2023-04-16T05:36:56.120Z,42.44
2023-04-16T05:39:49.768Z,42.93
2023-04-16T05:42:43.693Z,43.16
2023-04-16T05:45:41.318Z,43.59
2023-04-16T05:48:35.231Z,43.23
2023-04-16T05:51:28.988Z,42.98
2023-04-16T05:54:22.961Z,42.89
2023-04-16T05:57:17.533Z,42.62
2023-04-16T06:00:13.462Z,43.27
2023-04-16T06:03:07.832Z,43.04
2023-04-16T06:06:01.941Z,43.30
2023-04-16T06:08:55.539Z,43.62
2023-04-16T06:11:49.361Z,43.72
2023-04-16T06:14:43.003Z,43.96
2023-04-16T06:17:36.738Z,43.58
2023-04-16T06:20:30.776Z,43.84
2023-04-16T06:23:24.483Z,43.86
2023-04-16T06:26:18.286Z,43.71
2023-04-16T06:29:12.406Z,44.09
2023-04-16T06:32:06.469Z,43.87
2023-04-16T06:35:00.303Z,43.79
2023-04-16T06:37:54.360Z,44.11
2023-04-16T06:40:49.354Z,43.92
2023-04-16T06:43:43.138Z,43.82
2023-04-16T06:46:36.973Z,43.76
2023-04-16T06:49:30.978Z,43.77
2023-04-16T06:52:24.827Z,44.45
2023-04-16T06:55:19.075Z,44.26
2023-04-16T06:58:12.650Z,44.53
2023-04-16T07:01:06.484Z,44.72
2023-04-16T07:04:00.841Z,45.12
2023-04-16T07:06:55.645Z,45.22
2023-04-16T07:09:49.289Z,44.62
2023-04-16T07:12:42.961Z,44.59
2023-04-16T07:15:37.691Z,44.86
2023-04-16T07:18:31.543Z,44.73
2023-04-16T07:21:26.169Z,44.61
2023-04-16T07:24:20.037Z,44.25
2023-04-16T07:27:13.972Z,44.11
2023-04-16T07:30:09.844Z,44.52
2023-04-16T07:33:04.199Z,44.42
2023-04-16T07:35:58.090Z,45.25
2023-04-16T07:38:37.107Z,44.29
2023-04-16T07:41:31.062Z,43.20
2023-04-16T07:44:24.799Z,43.66
2023-04-16T07:47:18.738Z,43.86
2023-04-16T07:50:14.206Z,44.57
2023-04-16T07:53:08.032Z,43.16
2023-04-16T07:56:01.697Z,43.72
2023-04-16T07:58:55.811Z,43.34
2023-04-16T08:01:49.785Z,43.96
2023-04-16T08:04:44.743Z,44.94
2023-04-16T08:07:39.395Z,43.99
2023-04-16T08:10:33.876Z,42.82
2023-04-16T08:13:28.405Z,42.66
2023-04-16T08:16:22.854Z,42.91
2023-04-16T08:19:17.104Z,43.47
2023-04-16T08:22:11.315Z,43.57
2023-04-16T08:25:05.966Z,43.42
2023-04-16T08:28:00.153Z,43.80
2023-04-16T08:30:55.075Z,43.11
2023-04-16T08:33:48.958Z,43.84
2023-04-16T08:36:42.782Z,44.58
2023-04-16T08:39:37.765Z,44.12
2023-04-16T08:42:37.071Z,43.53
2023-04-16T08:45:32.786Z,44.49
2023-04-16T08:48:30.138Z,45.19
2023-04-16T08:51:25.210Z,44.99
2023-04-16T08:54:27.656Z,44.64
2023-04-16T08:57:24.052Z,44.31
2023-04-16T09:00:19.922Z,43.80
2023-04-16T09:03:14.502Z,44.81
2023-04-16T09:06:09.887Z,44.67
2023-04-16T09:09:06.239Z,43.26
2023-04-16T09:12:00.445Z,44.77
2023-04-16T09:14:54.800Z,43.74
2023-04-16T09:17:48.806Z,44.45
2023-04-16T09:20:43.111Z,44.94
2023-04-16T09:23:38.467Z,44.95
2023-04-16T09:26:32.815Z,44.86
2023-04-16T09:29:40.854Z,44.49
2023-04-16T09:32:34.756Z,44.62
2023-04-16T09:35:28.576Z,43.76
2023-04-16T09:38:22.707Z,44.64
2023-04-16T09:41:17.730Z,44.96
2023-04-16T09:44:11.472Z,44.99
2023-04-16T09:47:08.956Z,44.42
2023-04-16T09:50:04.513Z,44.36
2023-04-16T09:53:04.729Z,44.32
2023-04-16T09:56:00.906Z,44.36
2023-04-16T09:59:00.930Z,45.43
2023-04-16T10:02:15.339Z,54.18
2023-04-16T10:05:16.702Z,49.35
2023-04-16T10:08:18.755Z,49.60
2023-04-16T10:11:12.882Z,44.57
2023-04-16T10:14:06.699Z,43.41
2023-04-16T10:17:01.150Z,42.75
2023-04-16T10:19:58.562Z,43.00
2023-04-16T10:22:54.067Z,43.57
2023-04-16T10:25:48.909Z,42.10
2023-04-16T10:28:43.343Z,43.42
2023-04-16T10:31:37.831Z,43.73
2023-04-16T10:34:32.619Z,44.14
2023-04-16T10:37:33.440Z,43.20
2023-04-16T10:40:30.951Z,43.04
2023-04-16T10:43:26.403Z,41.35
2023-04-16T10:46:25.050Z,40.02
2023-04-16T10:49:21.226Z,39.32
2023-04-16T10:52:18.207Z,38.98
2023-04-16T10:55:23.280Z,38.58
2023-04-16T10:58:36.873Z,38.91
2023-04-16T11:01:38.349Z,39.64
2023-04-16T11:04:36.989Z,40.18
2023-04-16T11:07:39.454Z,42.07
2023-04-16T11:10:59.447Z,40.50
2023-04-16T11:13:58.000Z,41.56
2023-04-16T11:16:51.828Z,39.58
2023-04-16T11:19:46.926Z,40.03
2023-04-16T11:22:41.212Z,38.80
2023-04-16T11:25:35.499Z,40.15
2023-04-16T11:28:39.461Z,41.74
2023-04-16T11:31:33.578Z,40.77
2023-04-16T11:34:27.455Z,41.09
2023-04-16T11:37:32.285Z,41.09
2023-04-16T11:40:26.474Z,41.17
2023-04-16T11:43:20.793Z,41.04
2023-04-16T11:46:24.596Z,41.59
2023-04-16T11:49:31.801Z,40.74
2023-04-16T11:52:33.855Z,41.11
2023-04-16T11:55:27.877Z,41.78
2023-04-16T11:58:23.376Z,41.84
2023-04-16T12:01:40.608Z,42.16
2023-04-16T12:04:36.200Z,41.62
2023-04-16T12:07:15.960Z,42.07
2023-04-16T12:10:14.260Z,42.42
2023-04-16T12:13:18.707Z,42.67
2023-04-16T12:16:22.574Z,42.74
2023-04-16T12:19:16.982Z,44.74
2023-04-16T12:22:10.822Z,44.15
2023-04-16T12:25:06.113Z,43.77
2023-04-16T12:27:59.878Z,43.50
2023-04-16T12:30:54.861Z,43.45
2023-04-16T12:34:10.161Z,44.79
2023-04-16T12:37:10.971Z,44.69
2023-04-16T12:40:05.908Z,44.75
2023-04-16T12:42:59.865Z,44.43
2023-04-16T12:45:54.174Z,45.85
2023-04-16T12:48:49.752Z,45.85
2023-04-16T12:51:43.649Z,45.20
2023-04-16T12:54:39.466Z,44.22
2023-04-16T12:57:33.434Z,44.46
2023-04-16T13:00:27.655Z,44.81
2023-04-16T13:03:21.999Z,44.23
2023-04-16T13:06:17.689Z,43.57
2023-04-16T13:09:12.294Z,44.17
2023-04-16T13:12:07.082Z,43.78
2023-04-16T13:15:00.896Z,43.65
2023-04-16T13:17:54.582Z,44.00
2023-04-16T13:20:48.350Z,43.93
2023-04-16T13:23:42.431Z,43.85
2023-04-16T13:26:36.123Z,44.43
2023-04-16T13:29:30.009Z,44.83
2023-04-16T13:32:23.973Z,44.61
2023-04-16T13:35:18.144Z,44.38
2023-04-16T13:38:12.219Z,44.27
2023-04-16T13:41:06.133Z,43.42
2023-04-16T13:43:59.715Z,42.98
2023-04-16T13:46:37.494Z,40.03
2023-04-16T13:49:35.484Z,38.48
2023-04-16T13:52:29.649Z,38.98
2023-04-16T13:55:23.405Z,38.62
2023-04-16T13:58:17.467Z,41.57
2023-04-16T14:01:12.299Z,43.28
2023-04-16T14:04:08.251Z,40.35
2023-04-16T14:07:02.084Z,42.33
2023-04-16T14:09:55.949Z,42.88
2023-04-16T14:12:49.829Z,42.94
2023-04-16T14:15:43.584Z,42.47
2023-04-16T14:18:41.856Z,42.54
2023-04-16T14:21:35.896Z,41.63
2023-04-16T14:24:29.595Z,41.91
2023-04-16T14:27:23.433Z,42.25
2023-04-16T14:30:17.681Z,42.91
2023-04-16T14:33:11.355Z,42.51
2023-04-16T14:36:05.786Z,38.72
2023-04-16T14:38:59.672Z,37.82
2023-04-16T14:41:53.492Z,37.22
2023-04-16T14:44:47.483Z,36.72
2023-04-16T14:47:46.015Z,39.69
2023-04-16T14:50:48.198Z,40.71
2023-04-16T14:53:42.568Z,41.07
2023-04-16T14:56:36.462Z,40.84
2023-04-16T14:59:30.447Z,40.91
2023-04-16T15:02:24.215Z,40.63
2023-04-16T15:05:17.972Z,40.84
2023-04-16T15:08:12.221Z,40.97
2023-04-16T15:11:05.845Z,41.17
2023-04-16T15:13:59.868Z,41.49
2023-04-16T15:16:54.149Z,41.10
2023-04-16T15:19:47.814Z,41.12
2023-04-16T15:22:41.847Z,40.92
2023-04-16T15:25:35.745Z,40.64
2023-04-16T15:28:29.340Z,40.89
2023-04-16T15:31:23.220Z,41.15
2023-04-16T15:34:17.010Z,41.04
2023-04-16T15:37:10.917Z,41.38
2023-04-16T15:40:05.722Z,41.19
2023-04-16T15:43:00.471Z,41.13
2023-04-16T15:45:54.153Z,40.86
2023-04-16T15:48:47.857Z,40.71
2023-04-16T15:51:41.890Z,40.75
2023-04-16T15:54:35.650Z,40.59
2023-04-16T15:57:29.776Z,40.85
2023-04-16T16:00:23.975Z,40.91
2023-04-16T16:03:18.552Z,41.01
2023-04-16T16:06:13.563Z,40.41
2023-04-16T16:09:08.138Z,40.22
2023-04-16T16:12:02.288Z,40.34
2023-04-16T16:14:56.693Z,39.97
2023-04-16T16:17:52.764Z,40.18
2023-04-16T16:20:46.919Z,40.04
2023-04-16T16:23:40.694Z,40.25
2023-04-16T16:26:34.647Z,40.98
2023-04-16T16:29:28.603Z,40.94
2023-04-16T16:32:22.837Z,40.88
2023-04-16T16:35:16.897Z,37.29
2023-04-16T16:38:11.311Z,36.77
2023-04-16T16:41:05.922Z,36.60
2023-04-16T16:43:59.776Z,37.29
2023-04-16T16:46:53.998Z,36.84
2023-04-16T16:49:47.845Z,38.63
2023-04-16T16:52:41.823Z,39.79
2023-04-16T16:55:36.142Z,39.71
2023-04-16T16:58:31.545Z,39.94
2023-04-16T17:01:26.090Z,40.15
2023-04-16T17:04:20.468Z,39.93
2023-04-16T17:07:14.576Z,40.00
2023-04-16T17:10:11.174Z,39.82
2023-04-16T17:13:08.565Z,40.35
2023-04-16T17:16:02.411Z,40.83
2023-04-16T17:18:57.513Z,40.76
2023-04-16T17:21:51.985Z,40.56
2023-04-16T17:24:45.806Z,40.20
2023-04-16T17:27:39.653Z,39.96
2023-04-16T17:30:34.525Z,38.53
2023-04-16T17:33:28.321Z,37.93
2023-04-16T17:36:23.042Z,37.63
2023-04-16T17:39:17.074Z,39.15
2023-04-16T17:42:10.981Z,39.64
2023-04-16T17:45:05.351Z,40.62
2023-04-16T17:47:59.046Z,40.49
2023-04-16T17:50:53.191Z,40.69
2023-04-16T17:53:46.847Z,40.88
2023-04-16T17:56:40.647Z,41.00
2023-04-16T17:59:34.635Z,40.95
2023-04-16T18:02:28.548Z,41.33
2023-04-16T18:05:22.262Z,40.82
2023-04-16T18:08:15.918Z,40.63
2023-04-16T18:11:11.946Z,41.25
2023-04-16T18:14:05.705Z,41.42
2023-04-16T18:16:59.855Z,41.38
2023-04-16T18:19:53.543Z,41.36
2023-04-16T18:22:47.434Z,41.48
2023-04-16T18:25:41.782Z,41.75
2023-04-16T18:28:35.979Z,41.74
2023-04-16T18:31:29.892Z,41.72
2023-04-16T18:34:25.473Z,41.70
2023-04-16T18:37:19.245Z,41.68
2023-04-16T18:40:15.348Z,41.16
2023-04-16T18:43:09.101Z,41.07
2023-04-16T18:46:05.452Z,41.50
2023-04-16T18:48:59.997Z,41.94
2023-04-16T18:51:55.754Z,41.97
2023-04-16T18:54:49.698Z,42.10
2023-04-16T18:57:43.572Z,41.75
2023-04-16T19:00:37.518Z,42.40
2023-04-16T19:04:19.298Z,42.32
2023-04-16T19:06:48.241Z,42.37
2023-04-16T19:09:41.977Z,42.31
2023-04-16T19:12:36.425Z,42.23
2023-04-16T19:15:32.066Z,42.31
2023-04-16T19:18:27.226Z,42.30
2023-04-16T19:21:21.067Z,42.28
2023-04-16T19:24:14.791Z,42.40
2023-04-16T19:27:08.419Z,42.62
2023-04-16T19:30:02.921Z,42.12
2023-04-16T19:32:56.640Z,41.83
2023-04-16T19:35:50.770Z,41.74
2023-04-16T19:38:44.424Z,41.62
2023-04-16T19:41:38.203Z,40.96
2023-04-16T19:44:32.608Z,40.12
2023-04-16T19:47:26.281Z,41.87
2023-04-16T19:50:20.694Z,42.98
2023-04-16T19:53:16.863Z,42.89
2023-04-16T19:56:10.889Z,42.92
2023-04-16T19:59:04.483Z,42.84
2023-04-16T20:01:58.244Z,42.49
2023-04-16T20:04:53.379Z,41.99
2023-04-16T20:07:52.015Z,42.59
2023-04-16T20:10:46.539Z,41.26
2023-04-16T20:13:40.237Z,40.74
2023-04-16T20:16:33.974Z,40.96
2023-04-16T20:19:31.565Z,40.83
2023-04-16T20:22:25.198Z,40.11
2023-04-16T20:25:20.401Z,40.91
2023-04-16T20:28:21.089Z,40.98
2023-04-16T20:31:15.550Z,41.84
2023-04-16T20:34:09.228Z,41.09
2023-04-16T20:37:02.929Z,41.74
2023-04-16T20:39:56.559Z,41.80
2023-04-16T20:42:52.078Z,41.11
2023-04-16T20:45:46.194Z,41.11
2023-04-16T20:48:40.339Z,40.52
2023-04-16T20:51:34.030Z,40.54
2023-04-16T20:54:32.279Z,39.67
2023-04-16T20:57:28.041Z,38.79
2023-04-16T21:00:22.804Z,38.57
2023-04-16T21:03:16.709Z,39.81
2023-04-16T21:06:32.855Z,39.97
2023-04-16T21:09:27.050Z,39.71
2023-04-16T21:12:21.214Z,40.22
2023-04-16T21:15:15.880Z,40.41
2023-04-16T21:18:10.042Z,40.56
2023-04-16T21:21:03.783Z,41.37
2023-04-16T21:23:57.778Z,41.49
2023-04-16T21:26:51.362Z,41.36
2023-04-16T21:29:45.098Z,41.31
2023-04-16T21:32:39.221Z,40.56
2023-04-16T21:35:35.472Z,41.45
2023-04-16T21:38:29.183Z,41.56
2023-04-16T21:41:22.886Z,41.50
2023-04-16T21:44:16.585Z,40.80
2023-04-16T21:47:10.335Z,40.64
2023-04-16T21:50:04.040Z,40.58
2023-04-16T21:52:57.676Z,40.33
2023-04-16T21:55:51.362Z,40.36
2023-04-16T21:58:45.094Z,40.81
2023-04-16T22:01:38.887Z,40.78
2023-04-16T22:04:38.927Z,40.71
2023-04-16T22:07:32.758Z,40.57
2023-04-16T22:10:26.581Z,40.62
2023-04-16T22:13:20.283Z,40.87
2023-04-16T22:16:14.150Z,40.21
2023-04-16T22:19:07.970Z,41.15
2023-04-16T22:22:01.703Z,41.23
2023-04-16T22:24:55.701Z,41.23
2023-04-16T22:27:49.376Z,40.87
2023-04-16T22:30:43.054Z,41.21
2023-04-16T22:33:36.713Z,41.44
2023-04-16T22:36:30.942Z,42.00
2023-04-16T22:39:24.593Z,41.40
2023-04-16T22:42:18.384Z,41.45
2023-04-16T22:45:13.887Z,41.43
2023-04-16T22:48:07.980Z,41.11
2023-04-16T22:51:02.060Z,41.62
2023-04-16T22:53:56.381Z,41.13
2023-04-16T22:56:50.518Z,41.43
2023-04-16T22:59:44.433Z,41.42
2023-04-16T23:02:38.417Z,41.27
2023-04-16T23:05:32.827Z,41.19
2023-04-16T23:08:26.714Z,41.40
2023-04-16T23:11:20.326Z,41.33
2023-04-16T23:14:16.796Z,41.74
2023-04-16T23:17:10.701Z,41.13
2023-04-16T23:20:07.517Z,40.79
2023-04-16T23:23:01.431Z,40.57
2023-04-16T23:25:57.847Z,40.48
2023-04-16T23:28:51.722Z,40.69
2023-04-16T23:31:45.390Z,40.32
2023-04-16T23:34:39.090Z,40.11
2023-04-16T23:37:32.842Z,40.43
2023-04-16T23:40:26.822Z,40.25
2023-04-16T23:43:20.412Z,40.14
2023-04-16T23:46:14.297Z,39.82
2023-04-16T23:49:08.555Z,39.95
2023-04-16T23:52:02.338Z,40.10
2023-04-16T23:54:56.206Z,39.99
2023-04-16T23:57:49.914Z,39.81
